sensor_id;sensor_type;location;lat;lon;timestamp;pressure;altitude;pressure_sealevel;temperature;humidity
43934;BME280;59081;42.706;23.306;2023-02-28T00:00:23;95521.88;;;4.44;100.00
43934;BME280;59081;42.706;23.306;2023-02-28T00:02:49;95619.72;;;5.24;100.00
43934;BME280;59081;42.706;23.306;2023-02-28T00:05:37;95709.47;;;5.65;100.00
43934;BME280;59081;42.706;23.306;2023-02-28T00:08:08;95585.81;;;4.79;100.00
43934;BME280;59081;42.706;23.306;2023-02-28T00:10:34;95531.63;;;4.38;100.00
43934;BME280;59081;42.706;23.306;2023-02-28T00:13:05;95715.72;;;5.65;100.00
43934;BME280;59081;42.706;23.306;2023-02-28T00:15:31;95544.88;;;4.79;100.00
43934;BME280;59081;42.706;23.306;2023-02-28T00:17:57;95514.88;;;4.29;100.00
43934;BME280;59081;42.706;23.306;2023-02-28T00:20:23;95542.91;;;4.26;100.00
43934;BME280;59081;42.706;23.306;2023-02-28T00:22:51;95539.38;;;4.18;100.00
43934;BME280;59081;42.706;23.306;2023-02-28T00:25:21;95629.09;;;4.63;100.00
43934;BME280;59081;42.706;23.306;2023-02-28T00:27:47;95617.75;;;4.57;100.00
43934;BME280;59081;42.706;23.306;2023-02-28T00:30:17;95744.59;;;5.77;100.00
43934;BME280;59081;42.706;23.306;2023-02-28T00:32:43;95626.75;;;4.61;100.00
43934;BME280;59081;42.706;23.306;2023-02-28T00:35:10;95706.75;;;5.11;100.00
43934;BME280;59081;42.706;23.306;2023-02-28T00:37:36;95632.97;;;4.54;100.00
43934;BME280;59081;42.706;23.306;2023-02-28T00:40:03;95581.47;;;4.25;100.00
43934;BME280;59081;42.706;23.306;2023-02-28T00:42:33;95628.28;;;4.51;100.00
43934;BME280;59081;42.706;23.306;2023-02-28T00:44:58;95752.81;;;5.45;100.00
43934;BME280;59081;42.706;23.306;2023-02-28T00:47:24;95540.88;;;3.80;100.00
43934;BME280;59081;42.706;23.306;2023-02-28T00:49:55;95502.19;;;3.50;100.00
43934;BME280;59081;42.706;23.306;2023-02-28T00:52:20;95711.72;;;4.70;100.00
43934;BME280;59081;42.706;23.306;2023-02-28T00:54:46;95721.50;;;4.78;100.00
43934;BME280;59081;42.706;23.306;2023-02-28T00:57:12;95545.44;;;3.66;100.00
43934;BME280;59081;42.706;23.306;2023-02-28T00:59:37;95600.56;;;4.35;100.00
43934;BME280;59081;42.706;23.306;2023-02-28T01:02:06;95553.19;;;3.53;100.00
43934;BME280;59081;42.706;23.306;2023-02-28T01:04:31;95528.66;;;3.42;100.00
43934;BME280;59081;42.706;23.306;2023-02-28T01:06:57;95602.75;;;3.83;100.00
43934;BME280;59081;42.706;23.306;2023-02-28T01:09:25;95571.16;;;3.61;100.00
43934;BME280;59081;42.706;23.306;2023-02-28T01:11:51;95655.31;;;3.88;100.00
43934;BME280;59081;42.706;23.306;2023-02-28T01:14:17;95573.88;;;3.61;100.00
43934;BME280;59081;42.706;23.306;2023-02-28T01:16:43;95521.47;;;3.13;100.00
43934;BME280;59081;42.706;23.306;2023-02-28T01:19:09;95602.25;;;3.57;100.00
43934;BME280;59081;42.706;23.306;2023-02-28T01:21:35;95583.88;;;3.46;100.00
43934;BME280;59081;42.706;23.306;2023-02-28T01:24:02;95715.91;;;4.39;100.00
43934;BME280;59081;42.706;23.306;2023-02-28T01:26:29;95722.53;;;4.31;100.00
43934;BME280;59081;42.706;23.306;2023-02-28T01:28:54;95512.75;;;2.83;100.00
43934;BME280;59081;42.706;23.306;2023-02-28T01:31:21;95590.97;;;3.65;100.00
43934;BME280;59081;42.706;23.306;2023-02-28T01:33:47;95582.00;;;3.54;100.00
43934;BME280;59081;42.706;23.306;2023-02-28T01:36:18;95576.06;;;3.38;100.00
43934;BME280;59081;42.706;23.306;2023-02-28T01:38:45;95589.69;;;3.38;100.00
43934;BME280;59081;42.706;23.306;2023-02-28T01:46:16;95476.88;;;2.59;100.00
43934;BME280;59081;42.706;23.306;2023-02-28T01:48:50;95674.59;;;4.27;100.00
43934;BME280;59081;42.706;23.306;2023-02-28T01:51:22;95509.13;;;2.64;100.00
43934;BME280;59081;42.706;23.306;2023-02-28T01:53:54;95491.94;;;2.50;100.00
43934;BME280;59081;42.706;23.306;2023-02-28T01:56:23;95725.47;;;3.98;100.00
43934;BME280;59081;42.706;23.306;2023-02-28T01:58:53;95725.06;;;3.92;100.00
43934;BME280;59081;42.706;23.306;2023-02-28T02:01:23;95587.19;;;3.08;100.00
43934;BME280;59081;42.706;23.306;2023-02-28T02:03:56;95637.94;;;3.37;100.00
43934;BME280;59081;42.706;23.306;2023-02-28T02:06:29;95590.09;;;3.40;100.00
43934;BME280;59081;42.706;23.306;2023-02-28T02:08:56;95723.19;;;4.07;100.00
43934;BME280;59081;42.706;23.306;2023-02-28T02:11:23;95645.78;;;3.49;100.00
43934;BME280;59081;42.706;23.306;2023-02-28T02:36:13;95725.84;;;4.00;100.00
43934;BME280;59081;42.706;23.306;2023-02-28T02:41:24;95589.75;;;3.48;100.00
43934;BME280;59081;42.706;23.306;2023-02-28T02:44:00;95740.38;;;4.14;100.00
43934;BME280;59081;42.706;23.306;2023-02-28T02:46:40;95651.28;;;3.57;100.00
43934;BME280;59081;42.706;23.306;2023-02-28T02:49:18;95498.13;;;2.47;100.00
43934;BME280;59081;42.706;23.306;2023-02-28T02:51:46;95593.81;;;3.10;100.00
43934;BME280;59081;42.706;23.306;2023-02-28T02:54:17;95521.53;;;2.62;100.00
43934;BME280;59081;42.706;23.306;2023-02-28T02:56:47;95745.13;;;4.35;100.00
43934;BME280;59081;42.706;23.306;2023-02-28T02:59:17;95542.03;;;3.03;100.00
43934;BME280;59081;42.706;23.306;2023-02-28T03:01:52;95535.66;;;2.82;100.00
43934;BME280;59081;42.706;23.306;2023-02-28T03:04:21;95739.94;;;4.09;100.00
43934;BME280;59081;42.706;23.306;2023-02-28T03:06:50;95553.97;;;2.85;100.00
43934;BME280;59081;42.706;23.306;2023-02-28T03:09:21;95589.03;;;2.93;100.00
43934;BME280;59081;42.706;23.306;2023-02-28T03:11:48;95766.81;;;4.07;100.00
43934;BME280;59081;42.706;23.306;2023-02-28T03:16:49;95759.91;;;4.27;100.00
43934;BME280;59081;42.706;23.306;2023-02-28T03:19:45;95764.50;;;4.16;100.00
43934;BME280;59081;42.706;23.306;2023-02-28T03:25:07;95540.63;;;2.69;100.00
43934;BME280;59081;42.706;23.306;2023-02-28T03:27:56;95593.25;;;2.87;100.00
43934;BME280;59081;42.706;23.306;2023-02-28T03:30:47;95723.88;;;3.90;100.00
43934;BME280;59081;42.706;23.306;2023-02-28T03:33:22;95596.63;;;3.25;100.00
43934;BME280;59081;42.706;23.306;2023-02-28T03:35:54;95563.72;;;2.89;100.00
43934;BME280;59081;42.706;23.306;2023-02-28T03:38:34;95637.41;;;3.18;100.00
43934;BME280;59081;42.706;23.306;2023-02-28T03:41:19;95796.06;;;4.17;100.00
43934;BME280;59081;42.706;23.306;2023-02-28T03:43:53;95564.38;;;2.72;100.00
43934;BME280;59081;42.706;23.306;2023-02-28T03:46:24;95555.97;;;2.91;100.00
43934;BME280;59081;42.706;23.306;2023-02-28T03:49:07;95739.53;;;4.07;100.00
43934;BME280;59081;42.706;23.306;2023-02-28T03:51:35;95791.06;;;4.26;100.00
43934;BME280;59081;42.706;23.306;2023-02-28T03:54:08;95535.81;;;2.48;100.00
43934;BME280;59081;42.706;23.306;2023-02-28T03:56:41;95791.78;;;4.12;100.00
43934;BME280;59081;42.706;23.306;2023-02-28T03:59:20;95812.06;;;4.22;100.00
43934;BME280;59081;42.706;23.306;2023-02-28T04:01:48;95805.47;;;4.23;100.00
43934;BME280;59081;42.706;23.306;2023-02-28T04:04:19;95680.94;;;3.72;100.00
43934;BME280;59081;42.706;23.306;2023-02-28T04:06:45;95616.47;;;3.25;100.00
43934;BME280;59081;42.706;23.306;2023-02-28T04:09:13;95729.31;;;3.90;100.00
43934;BME280;59081;42.706;23.306;2023-02-28T04:11:45;95756.63;;;3.97;100.00
43934;BME280;59081;42.706;23.306;2023-02-28T04:14:11;95605.81;;;3.06;100.00
43934;BME280;59081;42.706;23.306;2023-02-28T04:16:39;95560.91;;;2.75;100.00
43934;BME280;59081;42.706;23.306;2023-02-28T04:19:07;95647.19;;;3.26;100.00
43934;BME280;59081;42.706;23.306;2023-02-28T04:21:51;95790.84;;;4.60;100.00
43934;BME280;59081;42.706;23.306;2023-02-28T04:24:20;95796.97;;;4.39;100.00
43934;BME280;59081;42.706;23.306;2023-02-28T04:26:47;95688.75;;;3.74;100.00
43934;BME280;59081;42.706;23.306;2023-02-28T04:29:22;95558.59;;;2.77;100.00
43934;BME280;59081;42.706;23.306;2023-02-28T04:31:51;95695.28;;;3.62;100.00
43934;BME280;59081;42.706;23.306;2023-02-28T04:34:23;95554.16;;;2.62;100.00
43934;BME280;59081;42.706;23.306;2023-02-28T04:36:49;95622.22;;;3.17;100.00
43934;BME280;59081;42.706;23.306;2023-02-28T04:39:16;95577.09;;;3.15;100.00
43934;BME280;59081;42.706;23.306;2023-02-28T04:41:44;95573.84;;;2.92;100.00
43934;BME280;59081;42.706;23.306;2023-02-28T04:44:12;95647.97;;;3.30;100.00
43934;BME280;59081;42.706;23.306;2023-02-28T04:46:38;95724.47;;;3.62;100.00
43934;BME280;59081;42.706;23.306;2023-02-28T04:49:04;95650.19;;;3.13;100.00
43934;BME280;59081;42.706;23.306;2023-02-28T04:51:29;95636.03;;;2.90;100.00
43934;BME280;59081;42.706;23.306;2023-02-28T04:53:55;95816.13;;;4.49;100.00
43934;BME280;59081;42.706;23.306;2023-02-28T04:56:21;95754.88;;;3.71;100.00
43934;BME280;59081;42.706;23.306;2023-02-28T04:58:47;95634.97;;;3.05;100.00
43934;BME280;59081;42.706;23.306;2023-02-28T05:03:47;95798.25;;;3.90;100.00
43934;BME280;59081;42.706;23.306;2023-02-28T05:06:13;95585.16;;;2.50;100.00
43934;BME280;59081;42.706;23.306;2023-02-28T05:08:44;95825.28;;;4.13;100.00
43934;BME280;59081;42.706;23.306;2023-02-28T05:11:18;95811.72;;;4.27;100.00
43934;BME280;59081;42.706;23.306;2023-02-28T05:13:44;95815.91;;;4.10;100.00
43934;BME280;59081;42.706;23.306;2023-02-28T05:16:10;95819.34;;;4.04;100.00
43934;BME280;59081;42.706;23.306;2023-02-28T05:18:39;95835.31;;;4.02;100.00
43934;BME280;59081;42.706;23.306;2023-02-28T05:21:05;95704.56;;;3.03;100.00
43934;BME280;59081;42.706;23.306;2023-02-28T05:23:31;95654.59;;;2.81;100.00
43934;BME280;59081;42.706;23.306;2023-02-28T05:25:57;95701.59;;;3.22;100.00
43934;BME280;59081;42.706;23.306;2023-02-28T05:28:23;95847.63;;;4.40;100.00
43934;BME280;59081;42.706;23.306;2023-02-28T05:30:49;95804.00;;;3.81;100.00
43934;BME280;59081;42.706;23.306;2023-02-28T05:33:14;95616.72;;;2.62;100.00
43934;BME280;59081;42.706;23.306;2023-02-28T05:35:41;95843.47;;;4.02;100.00
43934;BME280;59081;42.706;23.306;2023-02-28T05:38:08;95806.69;;;3.74;100.00
43934;BME280;59081;42.706;23.306;2023-02-28T05:40:34;95865.28;;;3.98;100.00
43934;BME280;59081;42.706;23.306;2023-02-28T05:42:59;95772.66;;;3.54;100.00
43934;BME280;59081;42.706;23.306;2023-02-28T05:45:25;95688.47;;;3.35;100.00
43934;BME280;59081;42.706;23.306;2023-02-28T05:47:54;95801.31;;;3.85;100.00
43934;BME280;59081;42.706;23.306;2023-02-28T05:50:23;95683.16;;;3.01;100.00
43934;BME280;59081;42.706;23.306;2023-02-28T05:52:54;95687.56;;;3.17;100.00
43934;BME280;59081;42.706;23.306;2023-02-28T05:55:19;95773.09;;;3.60;100.00
43934;BME280;59081;42.706;23.306;2023-02-28T05:57:48;95651.66;;;3.00;100.00
43934;BME280;59081;42.706;23.306;2023-02-28T06:00:19;95728.47;;;3.78;100.00
43934;BME280;59081;42.706;23.306;2023-02-28T06:02:44;95625.84;;;2.84;100.00
43934;BME280;59081;42.706;23.306;2023-02-28T06:05:14;95651.59;;;2.93;100.00
43934;BME280;59081;42.706;23.306;2023-02-28T06:07:41;95675.28;;;3.40;100.00
43934;BME280;59081;42.706;23.306;2023-02-28T06:10:07;95740.97;;;3.87;100.00
43934;BME280;59081;42.706;23.306;2023-02-28T06:12:35;95592.53;;;2.94;100.00
43934;BME280;59081;42.706;23.306;2023-02-28T06:15:02;95862.28;;;4.86;100.00
43934;BME280;59081;42.706;23.306;2023-02-28T06:17:27;95811.44;;;4.46;100.00
43934;BME280;59081;42.706;23.306;2023-02-28T06:19:53;95780.16;;;4.26;100.00
43934;BME280;59081;42.706;23.306;2023-02-28T06:22:19;95623.34;;;3.12;100.00
43934;BME280;59081;42.706;23.306;2023-02-28T06:24:44;95592.44;;;2.83;100.00
43934;BME280;59081;42.706;23.306;2023-02-28T06:27:10;95847.44;;;4.77;100.00
43934;BME280;59081;42.706;23.306;2023-02-28T06:29:36;95765.78;;;4.33;100.00
43934;BME280;59081;42.706;23.306;2023-02-28T06:32:05;95700.72;;;3.59;100.00
43934;BME280;59081;42.706;23.306;2023-02-28T06:34:31;95876.25;;;4.71;100.00
43934;BME280;59081;42.706;23.306;2023-02-28T06:36:59;95892.56;;;4.60;100.00
43934;BME280;59081;42.706;23.306;2023-02-28T06:39:28;95776.41;;;3.87;100.00
43934;BME280;59081;42.706;23.306;2023-02-28T06:41:54;95673.03;;;3.53;100.00
43934;BME280;59081;42.706;23.306;2023-02-28T06:44:20;95656.06;;;3.19;100.00
43934;BME280;59081;42.706;23.306;2023-02-28T06:46:45;95841.41;;;4.39;100.00
43934;BME280;59081;42.706;23.306;2023-02-28T06:49:11;95644.38;;;3.15;100.00
43934;BME280;59081;42.706;23.306;2023-02-28T06:51:39;95691.69;;;3.51;100.00
43934;BME280;59081;42.706;23.306;2023-02-28T06:54:05;95877.78;;;4.65;100.00
43934;BME280;59081;42.706;23.306;2023-02-28T06:56:34;95858.78;;;4.82;100.00
43934;BME280;59081;42.706;23.306;2023-02-28T06:59:00;95903.63;;;4.85;100.00
43934;BME280;59081;42.706;23.306;2023-02-28T07:01:26;95719.50;;;3.74;100.00
43934;BME280;59081;42.706;23.306;2023-02-28T07:03:53;95813.69;;;4.30;100.00
43934;BME280;59081;42.706;23.306;2023-02-28T07:06:20;95670.13;;;3.25;100.00
43934;BME280;59081;42.706;23.306;2023-02-28T07:08:48;95749.16;;;3.87;100.00
43934;BME280;59081;42.706;23.306;2023-02-28T07:11:13;95895.13;;;5.04;100.00
43934;BME280;59081;42.706;23.306;2023-02-28T07:13:39;95743.31;;;3.88;100.00
43934;BME280;59081;42.706;23.306;2023-02-28T07:16:06;95853.06;;;4.36;100.00
43934;BME280;59081;42.706;23.306;2023-02-28T07:18:34;95694.41;;;3.51;100.00
43934;BME280;59081;42.706;23.306;2023-02-28T07:21:05;95839.13;;;4.48;100.00
43934;BME280;59081;42.706;23.306;2023-02-28T07:23:32;95668.72;;;3.48;100.00
43934;BME280;59081;42.706;23.306;2023-02-28T07:25:57;95894.38;;;5.07;100.00
43934;BME280;59081;42.706;23.306;2023-02-28T07:28:24;95891.59;;;4.97;100.00
43934;BME280;59081;42.706;23.306;2023-02-28T07:30:52;95680.09;;;3.61;100.00
43934;BME280;59081;42.706;23.306;2023-02-28T07:33:17;95719.22;;;3.94;100.00
43934;BME280;59081;42.706;23.306;2023-02-28T07:35:45;95698.50;;;3.78;100.00
43934;BME280;59081;42.706;23.306;2023-02-28T07:38:11;95663.75;;;3.61;100.00
43934;BME280;59081;42.706;23.306;2023-02-28T07:40:39;95623.94;;;3.39;100.00
43934;BME280;59081;42.706;23.306;2023-02-28T07:43:04;95684.88;;;3.78;100.00
43934;BME280;59081;42.706;23.306;2023-02-28T07:45:31;95774.34;;;4.31;100.00
43934;BME280;59081;42.706;23.306;2023-02-28T07:47:59;95700.16;;;3.94;100.00
43934;BME280;59081;42.706;23.306;2023-02-28T07:50:25;95745.88;;;4.25;100.00
43934;BME280;59081;42.706;23.306;2023-02-28T07:52:56;95719.88;;;4.56;100.00
43934;BME280;59081;42.706;23.306;2023-02-28T07:55:22;95731.88;;;4.34;100.00
43934;BME280;59081;42.706;23.306;2023-02-28T07:57:47;95790.53;;;4.86;100.00
43934;BME280;59081;42.706;23.306;2023-02-28T08:00:13;95755.38;;;4.63;100.00
43934;BME280;59081;42.706;23.306;2023-02-28T08:02:41;95738.97;;;4.49;100.00
43934;BME280;59081;42.706;23.306;2023-02-28T08:05:08;95762.50;;;5.07;100.00
43934;BME280;59081;42.706;23.306;2023-02-28T08:07:33;95783.22;;;5.25;100.00
43934;BME280;59081;42.706;23.306;2023-02-28T08:09:59;95804.75;;;5.52;100.00
43934;BME280;59081;42.706;23.306;2023-02-28T08:12:25;95706.31;;;4.84;100.00
43934;BME280;59081;42.706;23.306;2023-02-28T08:14:51;95634.88;;;4.50;100.00
43934;BME280;59081;42.706;23.306;2023-02-28T08:17:16;95834.84;;;5.94;100.00
43934;BME280;59081;42.706;23.306;2023-02-28T08:19:42;95742.66;;;5.56;100.00
43934;BME280;59081;42.706;23.306;2023-02-28T08:22:10;95857.91;;;6.15;100.00
43934;BME280;59081;42.706;23.306;2023-02-28T08:24:35;95642.38;;;4.82;100.00
43934;BME280;59081;42.706;23.306;2023-02-28T08:27:01;95810.59;;;5.72;100.00
43934;BME280;59081;42.706;23.306;2023-02-28T08:29:26;95783.66;;;5.77;100.00
43934;BME280;59081;42.706;23.306;2023-02-28T08:31:52;95748.13;;;5.63;100.00
43934;BME280;59081;42.706;23.306;2023-02-28T08:34:17;95784.47;;;5.88;100.00
43934;BME280;59081;42.706;23.306;2023-02-28T08:36:43;95766.47;;;5.77;100.00
43934;BME280;59081;42.706;23.306;2023-02-28T08:39:12;95736.03;;;5.60;100.00
43934;BME280;59081;42.706;23.306;2023-02-28T08:41:38;95827.38;;;6.34;100.00
43934;BME280;59081;42.706;23.306;2023-02-28T08:44:03;95710.22;;;5.79;100.00
43934;BME280;59081;42.706;23.306;2023-02-28T08:46:29;95893.31;;;7.00;100.00
43934;BME280;59081;42.706;23.306;2023-02-28T08:48:56;95763.72;;;6.16;100.00
43934;BME280;59081;42.706;23.306;2023-02-28T08:51:26;95833.50;;;6.84;100.00
43934;BME280;59081;42.706;23.306;2023-02-28T08:53:59;95833.50;;;6.91;100.00
43934;BME280;59081;42.706;23.306;2023-02-28T08:56:28;95797.91;;;6.81;100.00
43934;BME280;59081;42.706;23.306;2023-02-28T08:58:56;95744.47;;;6.44;100.00
43934;BME280;59081;42.706;23.306;2023-02-28T09:01:25;95725.75;;;6.32;100.00
43934;BME280;59081;42.706;23.306;2023-02-28T09:03:52;95846.59;;;7.36;100.00
43934;BME280;59081;42.706;23.306;2023-02-28T09:06:20;95888.44;;;7.43;100.00
43934;BME280;59081;42.706;23.306;2023-02-28T09:08:45;95839.31;;;7.04;100.00
43934;BME280;59081;42.706;23.306;2023-02-28T09:11:11;95888.16;;;7.23;100.00
43934;BME280;59081;42.706;23.306;2023-02-28T09:13:38;95671.09;;;6.14;100.00
43934;BME280;59081;42.706;23.306;2023-02-28T09:16:06;95719.47;;;6.42;100.00
43934;BME280;59081;42.706;23.306;2023-02-28T09:18:33;95740.56;;;6.45;100.00
43934;BME280;59081;42.706;23.306;2023-02-28T09:21:03;95713.31;;;6.20;100.00
43934;BME280;59081;42.706;23.306;2023-02-28T09:23:28;95904.13;;;7.39;100.00
43934;BME280;59081;42.706;23.306;2023-02-28T09:25:54;95685.97;;;6.13;100.00
43934;BME280;59081;42.706;23.306;2023-02-28T09:28:20;95793.28;;;6.67;100.00
43934;BME280;59081;42.706;23.306;2023-02-28T09:30:51;95884.66;;;7.12;100.00
43934;BME280;59081;42.706;23.306;2023-02-28T09:33:18;95757.47;;;6.22;100.00
43934;BME280;59081;42.706;23.306;2023-02-28T09:35:47;95834.22;;;6.99;100.00
43934;BME280;59081;42.706;23.306;2023-02-28T09:38:13;95789.41;;;6.57;100.00
43934;BME280;59081;42.706;23.306;2023-02-28T09:40:49;95797.91;;;6.81;100.00
43934;BME280;59081;42.706;23.306;2023-02-28T09:43:20;95737.09;;;6.38;100.00
43934;BME280;59081;42.706;23.306;2023-02-28T09:46:10;95874.69;;;7.50;100.00
43934;BME280;59081;42.706;23.306;2023-02-28T09:48:41;95747.13;;;6.73;100.00
43934;BME280;59081;42.706;23.306;2023-02-28T09:51:28;95871.91;;;7.57;100.00
43934;BME280;59081;42.706;23.306;2023-02-28T09:53:55;95747.44;;;6.85;100.00
43934;BME280;59081;42.706;23.306;2023-02-28T09:56:25;95727.81;;;6.94;100.00
43934;BME280;59081;42.706;23.306;2023-02-28T09:59:30;95827.56;;;7.73;100.00
43934;BME280;59081;42.706;23.306;2023-02-28T10:04:58;95815.78;;;7.76;100.00
43934;BME280;59081;42.706;23.306;2023-02-28T10:10:45;95803.53;;;7.88;100.00
43934;BME280;59081;42.706;23.306;2023-02-28T10:13:20;95842.78;;;8.29;100.00
43934;BME280;59081;42.706;23.306;2023-02-28T10:15:52;95651.19;;;7.39;100.00
43934;BME280;59081;42.706;23.306;2023-02-28T10:18:33;95731.03;;;8.30;100.00
43934;BME280;59081;42.706;23.306;2023-02-28T10:21:04;95688.59;;;8.00;100.00
43934;BME280;59081;42.706;23.306;2023-02-28T10:23:34;95760.13;;;8.61;100.00
43934;BME280;59081;42.706;23.306;2023-02-28T10:26:09;95770.59;;;9.00;100.00
43934;BME280;59081;42.706;23.306;2023-02-28T10:28:36;95816.34;;;9.45;100.00
43934;BME280;59081;42.706;23.306;2023-02-28T10:31:02;95719.00;;;8.85;100.00
43934;BME280;59081;42.706;23.306;2023-02-28T10:33:30;95735.66;;;9.01;99.45
43934;BME280;59081;42.706;23.306;2023-02-28T10:35:57;95644.56;;;8.76;98.95
43934;BME280;59081;42.706;23.306;2023-02-28T10:38:44;95705.88;;;9.26;95.17
43934;BME280;59081;42.706;23.306;2023-02-28T10:43:38;95763.19;;;9.78;93.68
43934;BME280;59081;42.706;23.306;2023-02-28T10:48:37;95791.41;;;10.95;90.34
43934;BME280;59081;42.706;23.306;2023-02-28T10:51:07;95586.69;;;9.60;89.06
43934;BME280;59081;42.706;23.306;2023-02-28T10:53:40;95805.13;;;10.99;86.62
43934;BME280;59081;42.706;23.306;2023-02-28T11:03:49;95732.44;;;11.09;83.66
43934;BME280;59081;42.706;23.306;2023-02-28T11:06:18;95515.78;;;10.07;83.95
43934;BME280;59081;42.706;23.306;2023-02-28T11:09:03;95772.56;;;11.82;79.74
43934;BME280;59081;42.706;23.306;2023-02-28T11:11:44;95774.66;;;11.94;81.09
43934;BME280;59081;42.706;23.306;2023-02-28T11:14:21;95678.63;;;11.21;81.34
43934;BME280;59081;42.706;23.306;2023-02-28T11:16:48;95779.28;;;12.30;80.16
43934;BME280;59081;42.706;23.306;2023-02-28T11:19:25;95710.81;;;11.92;79.11
43934;BME280;59081;42.706;23.306;2023-02-28T11:21:55;95639.31;;;11.16;80.46
43934;BME280;59081;42.706;23.306;2023-02-28T11:24:29;95758.75;;;11.66;81.99
43934;BME280;59081;42.706;23.306;2023-02-28T11:26:57;95718.03;;;11.70;79.94
43934;BME280;59081;42.706;23.306;2023-02-28T11:29:27;95695.81;;;11.93;78.78
43934;BME280;59081;42.706;23.306;2023-02-28T11:34:35;95621.47;;;10.89;78.83
43934;BME280;59081;42.706;23.306;2023-02-28T11:37:01;95524.25;;;10.36;78.71
43934;BME280;59081;42.706;23.306;2023-02-28T11:39:31;95757.03;;;11.72;78.67
43934;BME280;59081;42.706;23.306;2023-02-28T11:44:43;95615.28;;;11.17;77.60
43934;BME280;59081;42.706;23.306;2023-02-28T11:55:30;95750.75;;;12.49;74.76
43934;BME280;59081;42.706;23.306;2023-02-28T12:07:00;95670.25;;;12.05;73.40
43934;BME280;59081;42.706;23.306;2023-02-28T12:10:05;95624.22;;;11.70;74.26
43934;BME280;59081;42.706;23.306;2023-02-28T12:15:23;95742.94;;;12.89;72.87
43934;BME280;59081;42.706;23.306;2023-02-28T12:26:16;95724.69;;;12.05;74.50
43934;BME280;59081;42.706;23.306;2023-02-28T12:28:54;95580.13;;;11.05;73.65
43934;BME280;59081;42.706;23.306;2023-02-28T12:31:27;95690.72;;;11.75;74.66
43934;BME280;59081;42.706;23.306;2023-02-28T12:34:01;95698.81;;;11.99;74.02
43934;BME280;59081;42.706;23.306;2023-02-28T12:36:28;95598.66;;;11.21;74.29
43934;BME280;59081;42.706;23.306;2023-02-28T12:39:04;95665.09;;;11.91;73.90
43934;BME280;59081;42.706;23.306;2023-02-28T12:41:42;95737.88;;;12.13;75.05
43934;BME280;59081;42.706;23.306;2023-02-28T12:44:17;95730.91;;;12.09;75.24
43934;BME280;59081;42.706;23.306;2023-02-28T12:46:48;95644.56;;;11.27;75.78
43934;BME280;59081;42.706;23.306;2023-02-28T12:49:25;95711.66;;;11.57;75.98
43934;BME280;59081;42.706;23.306;2023-02-28T12:51:51;95536.41;;;9.99;78.31
43934;BME280;59081;42.706;23.306;2023-02-28T12:54:37;95729.19;;;11.14;78.77
43934;BME280;59081;42.706;23.306;2023-02-28T12:57:15;95729.94;;;11.50;77.95
43934;BME280;59081;42.706;23.306;2023-02-28T12:59:54;95730.09;;;11.43;76.80
43934;BME280;59081;42.706;23.306;2023-02-28T13:08:41;95661.06;;;10.95;77.63
43934;BME280;59081;42.706;23.306;2023-02-28T13:11:29;95627.66;;;10.57;77.87
43934;BME280;59081;42.706;23.306;2023-02-28T13:14:05;95723.31;;;11.12;79.10
43934;BME280;59081;42.706;23.306;2023-02-28T13:19:25;95550.97;;;10.19;77.81
43934;BME280;59081;42.706;23.306;2023-02-28T13:21:51;95715.78;;;11.48;76.70
43934;BME280;59081;42.706;23.306;2023-02-28T13:24:38;95710.44;;;11.41;78.72
43934;BME280;59081;42.706;23.306;2023-02-28T13:29:37;95582.06;;;10.72;76.69
43934;BME280;59081;42.706;23.306;2023-02-28T13:47:33;95496.97;;;9.66;79.29
43934;BME280;59081;42.706;23.306;2023-02-28T13:53:18;95636.19;;;10.98;77.74
43934;BME280;59081;42.706;23.306;2023-02-28T13:56:24;95675.44;;;10.86;77.94
43934;BME280;59081;42.706;23.306;2023-02-28T13:58:54;95584.13;;;10.32;78.63
43934;BME280;59081;42.706;23.306;2023-02-28T14:04:37;95661.59;;;10.90;78.24
43934;BME280;59081;42.706;23.306;2023-02-28T14:07:07;95444.78;;;9.42;77.36
43934;BME280;59081;42.706;23.306;2023-02-28T14:09:40;95642.84;;;10.25;80.09
43934;BME280;59081;42.706;23.306;2023-02-28T14:15:38;95699.56;;;10.62;80.89
43934;BME280;59081;42.706;23.306;2023-02-28T14:18:20;95616.34;;;10.11;80.52
43934;BME280;59081;42.706;23.306;2023-02-28T14:20:48;95576.59;;;9.73;81.80
43934;BME280;59081;42.706;23.306;2023-02-28T14:24:20;95695.59;;;10.63;81.82
43934;BME280;59081;42.706;23.306;2023-02-28T14:32:15;95553.25;;;8.95;85.35
43934;BME280;59081;42.706;23.306;2023-02-28T14:34:59;95581.81;;;9.24;85.72
43934;BME280;59081;42.706;23.306;2023-02-28T14:37:37;95536.50;;;9.09;85.03
43934;BME280;59081;42.706;23.306;2023-02-28T14:40:32;95574.25;;;9.05;85.92
43934;BME280;59081;42.706;23.306;2023-02-28T14:42:59;95574.75;;;9.00;87.32
43934;BME280;59081;42.706;23.306;2023-02-28T14:45:28;95608.25;;;9.38;88.17
43934;BME280;59081;42.706;23.306;2023-02-28T14:47:56;95650.88;;;9.73;87.00
43934;BME280;59081;42.706;23.306;2023-02-28T14:50:29;95658.44;;;9.69;86.31
43934;BME280;59081;42.706;23.306;2023-02-28T14:52:56;95537.00;;;8.81;87.82
43934;BME280;59081;42.706;23.306;2023-02-28T14:55:31;95527.63;;;8.21;90.77
43934;BME280;59081;42.706;23.306;2023-02-28T14:57:59;95471.09;;;8.27;88.71
43934;BME280;59081;42.706;23.306;2023-02-28T15:00:33;95711.28;;;10.03;88.49
43934;BME280;59081;42.706;23.306;2023-02-28T15:03:01;95705.19;;;9.69;89.33
43934;BME280;59081;42.706;23.306;2023-02-28T15:05:42;95597.94;;;8.99;89.65
43934;BME280;59081;42.706;23.306;2023-02-28T15:08:17;95612.72;;;9.05;89.90
43934;BME280;59081;42.706;23.306;2023-02-28T15:13:47;95488.19;;;8.11;91.47
43934;BME280;59081;42.706;23.306;2023-02-28T15:16:20;95707.19;;;9.41;92.87
43934;BME280;59081;42.706;23.306;2023-02-28T15:19:02;95702.56;;;9.62;91.93
43934;BME280;59081;42.706;23.306;2023-02-28T15:21:33;95469.50;;;8.02;91.36